Time;durP1;ratioP1;P1;durP2;ratioP2;P2;SDS_P1;SDS_P2;PMS_P1;PMS_P2;Temp;Humidity;BMP_temperature;BMP_pressure;BME280_temperature;BME280_humidity;BME280_pressure;Samples;Min_cycle;Max_cycle;Signal;HPM_P1;HPM_P2
2024/02/08 00:01:16;;;;;;;4.35;2.08;;;;;;;-7.93;63.36;96685.97;5001711;28;20041;-46
2024/02/08 00:03:42;;;;;;;7.40;2.50;;;;;;;-7.98;63.28;96691.06;5004452;28;20046;-47
2024/02/08 00:06:08;;;;;;;4.97;2.10;;;;;;;-8.04;63.76;96698.69;4991758;28;20041;-48
2024/02/08 00:08:37;;;;;;;4.38;1.77;;;;;;;-8.04;63.51;96706.25;5008114;28;20068;-47
2024/02/08 00:11:06;;;;;;;4.88;2.65;;;;;;;-8.20;63.37;96685.41;4966054;28;20050;-48
2024/02/08 00:13:33;;;;;;;4.23;2.00;;;;;;;-8.04;63.68;96721.38;4991101;28;20053;-46
2024/02/08 00:15:59;;;;;;;5.53;2.50;;;;;;;-8.03;63.23;96728.09;5005311;28;20038;-48
2024/02/08 00:18:25;;;;;;;5.25;1.95;;;;;;;-8.05;63.43;96727.25;4978633;28;20046;-49
2024/02/08 00:20:51;;;;;;;4.50;2.42;;;;;;;-8.06;63.61;96742.41;4970777;28;20049;-50
2024/02/08 00:23:17;;;;;;;5.13;2.60;;;;;;;-8.10;62.77;96743.25;4987906;28;20038;-50
2024/02/08 00:25:46;;;;;;;6.10;2.22;;;;;;;-8.09;63.15;96752.50;5004062;28;20053;-49
2024/02/08 00:28:13;;;;;;;5.65;2.08;;;;;;;-8.41;63.33;96720.88;5007182;28;20191;-46
2024/02/08 00:30:40;;;;;;;6.88;2.38;;;;;;;-8.43;63.46;96722.59;5005668;28;20076;-48
2024/02/08 00:33:07;;;;;;;6.40;2.47;;;;;;;-8.25;63.13;96767.75;5005781;28;20125;-49
2024/02/08 00:35:33;;;;;;;4.05;2.40;;;;;;;-8.25;63.42;96770.25;4989915;28;20053;-48
2024/02/08 00:38:00;;;;;;;8.82;2.47;;;;;;;-8.52;62.82;96735.22;4975581;28;20052;-45
2024/02/08 00:40:26;;;;;;;7.30;2.53;;;;;;;-8.33;63.06;96786.31;4987962;28;20046;-46
2024/02/08 00:42:53;;;;;;;5.88;2.28;;;;;;;-8.37;63.19;96792.22;4982195;28;20046;-50
2024/02/08 00:45:22;;;;;;;6.03;2.42;;;;;;;-8.38;62.92;96788.88;5002047;28;20042;-47
2024/02/08 00:47:54;;;;;;;4.35;2.50;;;;;;;-8.38;63.13;96806.50;4987799;28;20046;-46
2024/02/08 00:50:23;;;;;;;6.80;2.47;;;;;;;-8.41;62.98;96811.53;4983792;28;20037;-46
2024/02/08 00:52:49;;;;;;;8.85;2.75;;;;;;;-8.57;62.62;96784.78;4990597;28;20425;-48
2024/02/08 00:55:18;;;;;;;5.68;2.40;;;;;;;-8.46;62.82;96813.25;4988400;28;20097;-45
2024/02/08 00:57:44;;;;;;;8.68;2.65;;;;;;;-8.48;62.51;96830.06;5007042;28;20038;-47
2024/02/08 01:00:11;;;;;;;7.50;2.40;;;;;;;-8.44;62.52;96833.41;4990155;28;20070;-47
2024/02/08 01:02:40;;;;;;;6.88;2.63;;;;;;;-8.55;62.53;96815.84;5006320;28;20100;-48
2024/02/08 01:05:06;;;;;;;7.18;2.40;;;;;;;-8.52;62.76;96846.03;5006237;28;20514;-44
2024/02/08 01:07:33;;;;;;;4.10;2.00;;;;;;;-8.58;62.49;96858.63;4990074;28;20502;-48
2024/02/08 01:09:59;;;;;;;6.82;2.20;;;;;;;-8.64;62.95;96866.25;4990193;28;20434;-45
2024/02/08 01:12:26;;;;;;;7.88;2.92;;;;;;;-8.66;62.59;96880.50;4983191;28;20045;-47
2024/02/08 01:14:52;;;;;;;5.30;2.25;;;;;;;-8.65;63.18;96885.53;5007930;28;20053;-46
2024/02/08 01:17:19;;;;;;;7.70;2.15;;;;;;;-8.69;62.98;96880.53;4971597;28;20045;-47
2024/02/08 01:19:47;;;;;;;4.03;2.17;;;;;;;-8.76;62.72;96894.81;5001107;28;20057;-45
2024/02/08 01:22:19;;;;;;;4.53;2.47;;;;;;;-8.88;62.78;96904.06;5006444;28;20276;-46
2024/02/08 01:24:48;;;;;;;8.80;2.53;;;;;;;-8.92;62.28;96900.75;5006701;28;20041;-49
2024/02/08 01:27:15;;;;;;;4.35;2.30;;;;;;;-9.17;62.12;96877.34;5005737;28;20041;-47
2024/02/08 01:29:41;;;;;;;5.30;1.98;;;;;;;-8.99;62.22;96911.66;4986601;28;20042;-45
2024/02/08 01:32:07;;;;;;;5.63;2.35;;;;;;;-9.26;62.13;96881.56;4987150;28;20056;-46
2024/02/08 01:34:33;;;;;;;3.58;2.25;;;;;;;-9.09;62.03;96925.94;5006434;28;20048;-45
2024/02/08 01:36:59;;;;;;;6.28;2.75;;;;;;;-9.13;62.66;96931.81;4974160;28;20525;-44
2024/02/08 01:39:25;;;;;;;4.15;2.22;;;;;;;-9.14;63.26;96936.84;5007148;28;20057;-46
2024/02/08 01:41:52;;;;;;;7.95;3.20;;;;;;;-9.22;62.38;96951.97;5006548;28;20082;-46
2024/02/08 01:44:21;;;;;;;6.85;2.50;;;;;;;-9.25;62.73;96967.03;5004850;28;20049;-45
2024/02/08 01:46:48;;;;;;;6.07;2.60;;;;;;;-9.34;63.04;96951.13;4998056;28;20048;-46
2024/02/08 01:49:27;;;;;;;6.55;2.47;;;;;;;-9.29;62.97;96972.91;4988746;28;20430;-46
2024/02/08 01:52:03;;;;;;;4.90;2.27;;;;;;;-9.62;62.60;96928.50;5004161;28;20046;-47
2024/02/08 01:54:30;;;;;;;5.55;2.28;;;;;;;-9.89;62.59;96904.19;4990898;28;20851;-45
2024/02/08 01:56:58;;;;;;;5.22;1.95;;;;;;;-9.54;63.06;96988.84;4989586;28;20042;-45
2024/02/08 01:59:27;;;;;;;8.40;2.97;;;;;;;-9.59;62.99;96983.81;4972934;28;20180;-45
2024/02/08 02:01:55;;;;;;;5.45;2.30;;;;;;;-9.64;62.78;96977.09;5004915;28;20285;-47
2024/02/08 02:04:22;;;;;;;8.10;2.47;;;;;;;-9.66;63.01;96987.16;5004859;28;20552;-46
2024/02/08 02:06:50;;;;;;;3.63;1.70;;;;;;;-9.71;62.86;96983.78;5007405;28;20038;-45
2024/02/08 02:09:27;;;;;;;9.77;3.00;;;;;;;-9.72;62.76;96988.81;5005120;28;20042;-43
2024/02/08 02:11:57;;;;;;;4.55;2.05;;;;;;;-9.74;62.76;97005.56;5007061;28;20130;-49
2024/02/08 02:14:29;;;;;;;5.20;2.33;;;;;;;-9.71;63.85;97011.44;5005743;28;20046;-45
2024/02/08 02:17:26;;;;;;;8.50;2.95;;;;;;;-9.70;63.59;97005.59;5006137;28;20041;-45
2024/02/08 02:20:05;;;;;;;13.90;3.22;;;;;;;-9.61;63.10;97019.81;4989066;28;20514;-47
2024/02/08 02:22:41;;;;;;;6.90;2.05;;;;;;;-9.79;63.04;96974.56;5005607;28;20045;-48
2024/02/08 02:25:08;;;;;;;5.90;2.50;;;;;;;-9.49;63.17;97027.41;5006639;28;20060;-45
2024/02/08 02:27:39;;;;;;;9.40;3.15;;;;;;;-9.47;63.20;97028.22;5004803;28;20045;-45
2024/02/08 02:30:15;;;;;;;6.10;2.45;;;;;;;-9.56;63.33;97025.69;5003998;28;20430;-46
2024/02/08 02:32:49;;;;;;;4.35;2.33;;;;;;;-9.63;63.19;97029.88;4985099;28;20042;-47
2024/02/08 02:35:17;;;;;;;6.65;2.72;;;;;;;-9.66;62.69;97029.88;5003616;28;20066;-49
2024/02/08 02:37:46;;;;;;;10.07;2.92;;;;;;;-9.88;63.37;96993.81;5006752;28;20040;-47
2024/02/08 02:40:21;;;;;;;;;;;;;;;-9.69;63.29;97031.56;4989662;28;20441;-46
2024/02/08 02:42:48;;;;;;;5.68;2.28;;;;;;;-10.02;63.64;96989.59;4957243;28;20066;-45
2024/02/08 02:45:14;;;;;;;6.28;2.65;;;;;;;-9.66;63.89;97036.56;4988185;28;20041;-46
2024/02/08 02:47:42;;;;;;;6.25;1.92;;;;;;;-9.82;63.05;97015.59;5004283;28;20477;-46
2024/02/08 02:50:09;;;;;;;8.65;2.55;;;;;;;-9.66;63.88;97039.09;4988973;28;20131;-46
2024/02/08 02:52:36;;;;;;;6.75;2.72;;;;;;;-9.57;63.74;97049.16;4993871;28;20620;-47
2024/02/08 02:55:04;;;;;;;9.52;2.97;;;;;;;-9.49;63.31;97058.41;4975889;28;20696;-46
2024/02/08 02:57:30;;;;;;;8.85;2.83;;;;;;;-9.40;63.79;97067.63;4985580;28;20049;-45
2024/02/08 02:59:59;;;;;;;4.35;2.45;;;;;;;-9.70;63.58;97022.34;4969255;28;20035;-47
2024/02/08 03:02:28;;;;;;;;;;;;;;;-9.51;63.02;97086.88;4997836;28;20037;-48
2024/02/08 03:04:54;;;;;;;11.05;2.47;;;;;;;-9.63;63.36;97079.34;4982091;28;20389;-48
2024/02/08 03:07:20;;;;;;;3.88;1.90;;;;;;;-9.79;63.39;97088.50;4985549;28;20053;-45
2024/02/08 03:09:46;;;;;;;6.93;2.60;;;;;;;-9.96;63.09;97095.13;4991204;28;20041;-45
2024/02/08 03:12:12;;;;;;;8.60;3.10;;;;;;;-10.06;64.19;97114.34;4987470;28;20044;-47
2024/02/08 03:14:58;;;;;;;6.13;2.40;;;;;;;-10.09;63.34;97118.50;4986110;28;20116;-45
2024/02/08 03:17:24;;;;;;;6.90;2.78;;;;;;;-10.07;63.72;97120.19;4972434;28;20045;-43
2024/02/08 03:19:50;;;;;;;5.40;2.10;;;;;;;-10.20;63.68;97103.41;4997600;28;20095;-45
2024/02/08 03:22:18;;;;;;;5.05;1.92;;;;;;;-10.12;64.62;97121.84;5006283;28;20045;-49
2024/02/08 03:24:44;;;;;;;3.97;2.15;;;;;;;-10.46;64.32;97077.31;5005704;28;20045;-44
2024/02/08 03:27:13;;;;;;;7.60;1.40;;;;;;;-10.24;64.72;97126.81;4997169;28;20547;-47
2024/02/08 03:29:42;;;;;;;3.22;1.48;;;;;;;-10.22;64.45;97130.19;4969618;28;20038;-47
2024/02/08 03:32:08;;;;;;;4.10;1.92;;;;;;;-10.16;64.32;97135.25;4989427;28;20046;-47
2024/02/08 03:34:35;;;;;;;7.38;2.28;;;;;;;-10.14;63.93;97132.69;4985283;28;20049;-45
2024/02/08 03:37:06;;;;;;;9.63;2.03;;;;;;;-10.14;63.61;97135.22;4969136;28;20038;-48
2024/02/08 03:39:32;;;;;;;6.32;1.73;;;;;;;-10.52;64.77;97087.34;4987021;28;20101;-45
2024/02/08 03:42:01;;;;;;;6.65;2.67;;;;;;;-10.33;64.20;97120.09;4972638;28;20034;-47
2024/02/08 03:44:31;;;;;;;7.57;2.00;;;;;;;-10.18;64.23;97146.13;4980633;28;20042;-49
2024/02/08 03:47:07;;;;;;;6.22;2.45;;;;;;;-10.42;64.84;97115.03;4985584;28;20044;-48
2024/02/08 03:49:35;;;;;;;5.80;2.33;;;;;;;-10.44;64.54;97113.31;4988026;28;20510;-48
2024/02/08 03:52:02;;;;;;;7.25;2.30;;;;;;;-10.16;64.86;97164.56;5001001;28;20050;-46
2024/02/08 03:54:30;;;;;;;5.43;2.40;;;;;;;-10.41;64.63;97125.88;5009627;28;20045;-47
2024/02/08 03:57:00;;;;;;;5.60;1.95;;;;;;;-10.20;64.41;97166.19;5009543;28;20042;-47
2024/02/08 03:59:26;;;;;;;9.20;2.47;;;;;;;-10.08;65.21;97165.41;4997265;28;20077;-47
2024/02/08 04:02:05;;;;;;;5.45;2.20;;;;;;;-9.97;64.66;97163.78;4994646;28;20046;-46
2024/02/08 04:04:47;;;;;;;6.93;2.00;;;;;;;-9.79;64.20;97173.09;4995494;28;20045;-47
2024/02/08 04:07:33;;;;;;;6.68;2.53;;;;;;;-9.96;64.52;97122.75;4991703;28;20046;-47
2024/02/08 04:10:13;;;;;;;5.97;2.53;;;;;;;-9.56;65.09;97174.03;5008744;28;20042;-49
2024/02/08 04:53:57;;;;;;;3.55;1.70;;;;;;;-9.52;63.66;97243.59;4988780;28;20058;-46
2024/02/08 04:56:23;;;;;;;2.85;1.08;;;;;;;-9.48;63.50;97256.22;4987583;28;20112;-46
2024/02/08 04:58:50;;;;;;;3.45;1.55;;;;;;;-9.52;63.83;97268.72;4955071;28;20049;-49
2024/02/08 05:01:17;;;;;;;3.58;1.65;;;;;;;-9.56;64.18;97254.47;4990025;28;20048;-43
2024/02/08 05:03:43;;;;;;;6.40;2.17;;;;;;;-9.61;63.79;97249.41;5005357;28;20038;-43
2024/02/08 05:06:11;;;;;;;3.55;1.98;;;;;;;-9.43;63.74;97272.16;4967667;28;20048;-44
2024/02/08 05:08:38;;;;;;;2.25;1.45;;;;;;;-9.49;64.14;97277.16;5001026;28;20074;-44
2024/02/08 05:11:09;;;;;;;5.10;1.75;;;;;;;-9.68;63.97;97279.56;4971487;28;20481;-44
2024/02/08 05:13:42;;;;;;;2.25;1.08;;;;;;;-9.88;64.15;97280.25;4995369;28;20046;-44
2024/02/08 05:16:15;;;;;;;6.50;2.10;;;;;;;-10.41;63.47;97221.28;4992411;28;20221;-44
2024/02/08 05:18:42;;;;;;;4.90;1.83;;;;;;;-10.09;63.68;97281.75;5006014;28;20053;-45
2024/02/08 05:21:13;;;;;;;10.93;2.30;;;;;;;-10.15;63.96;97290.09;5006124;28;20038;-46
2024/02/08 05:23:39;;;;;;;7.05;2.30;;;;;;;-10.15;64.53;97286.75;5005963;28;20091;-48
2024/02/08 05:26:06;;;;;;;3.83;2.13;;;;;;;-10.05;63.71;97291.88;4980496;28;20042;-45
2024/02/08 05:28:33;;;;;;;2.60;1.55;;;;;;;-10.16;63.95;97277.56;4995811;28;20544;-44
2024/02/08 05:31:00;;;;;;;4.85;1.90;;;;;;;-10.08;63.82;97296.00;4998889;28;20037;-51
2024/02/08 05:33:29;;;;;;;6.05;2.58;;;;;;;-10.13;64.44;97300.16;4994373;28;20041;-46
2024/02/08 05:35:56;;;;;;;6.35;2.97;;;;;;;-10.09;63.97;97295.16;4981282;28;20056;-46
2024/02/08 05:38:25;;;;;;;8.55;2.83;;;;;;;-10.41;64.35;97238.84;4979254;28;20145;-45
2024/02/08 05:40:52;;;;;;;6.63;2.25;;;;;;;-9.92;64.39;97310.38;5007411;28;20045;-46
2024/02/08 05:43:19;;;;;;;6.85;2.60;;;;;;;-9.82;64.00;97308.75;5002640;28;20034;-45
2024/02/08 05:45:45;;;;;;;7.75;3.10;;;;;;;-9.65;64.71;97313.09;4964588;28;20049;-45
2024/02/08 05:48:10;;;;;;;6.43;2.40;;;;;;;-9.74;64.15;97267.78;5001518;28;20052;-44
2024/02/08 05:50:36;;;;;;;3.38;1.42;;;;;;;-9.50;63.66;97293.06;4999241;28;20045;-48
2024/02/08 05:53:09;;;;;;;3.20;1.33;;;;;;;-9.62;64.15;97320.63;5000742;28;20132;-46
2024/02/08 05:55:35;;;;;;;4.40;1.98;;;;;;;-9.52;63.88;97326.56;4984917;28;20042;-50
2024/02/08 05:58:06;;;;;;;7.68;2.67;;;;;;;-9.46;64.17;97327.44;5001328;28;20096;-46
2024/02/08 06:00:35;;;;;;;6.20;3.00;;;;;;;-9.33;63.78;97333.41;4999530;28;20042;-46
2024/02/08 06:03:05;;;;;;;;;;;;;;;-9.43;63.41;97341.72;5000905;28;20041;-47
2024/02/08 06:05:31;;;;;;;5.72;1.98;;;;;;;-9.59;63.16;97340.78;4996151;28;19923;-46
2024/02/08 06:08:02;;;;;;;4.45;1.85;;;;;;;-9.66;63.98;97349.09;5001694;28;20403;-52
2024/02/08 06:10:52;;;;;;;5.22;2.33;;;;;;;-9.96;63.87;97308.69;4989895;28;20609;-48
2024/02/08 06:13:16;;;;;;;4.60;2.00;;;;;;;-9.69;63.17;97356.63;4997220;28;20493;-47
2024/02/08 06:15:50;;;;;;;4.20;1.70;;;;;;;-9.70;64.20;97365.00;4978059;28;20038;-48
2024/02/08 06:18:20;;;;;;;6.72;2.40;;;;;;;-9.75;64.01;97368.31;4998719;28;20538;-47
2024/02/08 06:20:51;;;;;;;4.78;1.85;;;;;;;-9.74;64.23;97365.81;4982011;28;20561;-45
2024/02/08 06:23:26;;;;;;;5.43;2.35;;;;;;;-10.18;63.82;97324.44;4978121;28;20045;-49
2024/02/08 06:28:46;;;;;;;4.95;2.00;;;;;;;-9.51;63.08;97376.00;4999470;28;20501;-45
2024/02/08 06:31:18;;;;;;;3.65;1.15;;;;;;;-9.74;62.82;97373.34;4971196;28;20042;-46
2024/02/08 06:36:30;;;;;;;3.25;1.98;;;;;;;-9.81;63.50;97378.31;4980936;28;20038;-44
2024/02/08 06:39:02;;;;;;;3.75;1.15;;;;;;;-9.89;63.04;97330.53;4981288;28;20038;-45
2024/02/08 06:41:52;;;;;;;4.90;2.13;;;;;;;-9.44;62.80;97377.75;4997953;28;20099;-47
2024/02/08 07:39:34;;;;;;;3.15;1.70;;;;;;;-3.58;51.85;97443.66;4995565;28;20037;-45
2024/02/08 07:42:24;;;;;;;5.40;2.20;;;;;;;-3.65;51.33;97447.13;4961830;28;20038;-44
2024/02/08 07:44:54;;;;;;;3.10;1.35;;;;;;;-3.21;50.94;97454.09;4974071;28;20038;-47
2024/02/08 07:47:24;;;;;;;4.38;2.00;;;;;;;-2.55;50.72;97447.00;4978840;28;20057;-45
2024/02/08 07:49:57;;;;;;;4.40;2.05;;;;;;;-1.85;49.73;97451.56;4969684;28;20041;-47
2024/02/08 07:52:24;;;;;;;3.80;1.80;;;;;;;-0.90;48.80;97442.59;4980060;28;20140;-45
2024/02/08 07:55:14;;;;;;;5.22;2.70;;;;;;;-0.80;48.13;97453.38;4977414;28;20057;-46
2024/02/08 07:57:57;;;;;;;3.50;2.15;;;;;;;-0.57;47.65;97457.00;4966238;28;20046;-48
2024/02/08 08:03:15;;;;;;;4.95;1.90;;;;;;;0.75;45.78;97472.84;4984681;28;20153;-46
2024/02/08 08:05:43;;;;;;;5.18;2.08;;;;;;;0.10;44.70;97474.81;4999344;28;20038;-46
2024/02/08 08:08:25;;;;;;;4.05;2.17;;;;;;;0.36;44.71;97482.56;5003690;28;20046;-50
2024/02/08 08:10:56;;;;;;;3.85;2.00;;;;;;;0.91;44.76;97481.72;4965025;28;20042;-46
2024/02/08 08:13:50;;;;;;;5.40;2.22;;;;;;;1.56;44.36;97482.16;4974344;28;20141;-46
2024/02/08 08:18:59;;;;;;;3.55;2.08;;;;;;;1.74;41.80;97495.19;4970934;28;20042;-50
2024/02/08 08:21:26;;;;;;;4.90;2.22;;;;;;;1.47;40.85;97489.28;4994455;28;20055;-50
2024/02/08 08:24:02;;;;;;;5.45;2.05;;;;;;;1.97;41.60;97496.09;4973864;28;20069;-50
2024/02/08 08:26:39;;;;;;;3.95;1.90;;;;;;;2.35;40.68;97501.56;4996403;28;20042;-50
2024/02/08 08:29:13;;;;;;;3.63;2.20;;;;;;;1.93;39.71;97519.31;4983004;28;20042;-49
2024/02/08 08:31:52;;;;;;;4.75;2.30;;;;;;;2.68;39.88;97513.13;4989089;28;20046;-50
2024/02/08 08:36:58;;;;;;;4.05;2.30;;;;;;;3.09;38.91;97514.09;4999597;28;20040;-49
2024/02/08 08:42:30;;;;;;;5.15;2.72;;;;;;;4.23;38.32;97514.50;4922592;28;20113;-50
2024/02/08 08:45:04;;;;;;;10.82;3.70;;;;;;;4.07;37.61;97516.91;4965313;28;20060;-52
2024/02/08 08:47:34;;;;;;;7.05;2.60;;;;;;;3.96;37.51;97505.41;4987768;28;20072;-48
2024/02/08 08:50:17;;;;;;;4.05;2.20;;;;;;;4.59;37.01;97501.72;4978085;28;20053;-49
2024/02/08 08:52:57;;;;;;;5.13;2.60;;;;;;;5.33;36.50;97518.84;4996798;28;20049;-49
2024/02/08 08:55:24;;;;;;;5.25;2.42;;;;;;;5.99;36.63;97510.44;4982780;28;20045;-48
2024/02/08 08:58:00;;;;;;;5.22;2.65;;;;;;;5.32;35.09;97519.75;4964576;28;20108;-46
2024/02/08 09:00:37;;;;;;;5.03;2.40;;;;;;;4.82;35.23;97527.25;4982472;28;20053;-48
2024/02/08 09:03:10;;;;;;;5.07;2.42;;;;;;;4.43;35.86;97532.47;4998713;28;20128;-50
2024/02/08 09:05:39;;;;;;;5.88;2.20;;;;;;;4.93;36.02;97521.59;4994153;28;20128;-49
2024/02/08 09:08:09;;;;;;;6.82;2.58;;;;;;;5.68;35.63;97516.28;4962099;28;20434;-47
2024/02/08 09:10:41;;;;;;;3.63;2.08;;;;;;;5.57;34.81;97516.81;4979837;28;20053;-49
2024/02/08 09:13:08;;;;;;;3.97;2.17;;;;;;;6.10;34.45;97519.31;4995670;28;20039;-47
2024/02/08 09:18:19;;;;;;;4.63;2.20;;;;;;;6.59;33.69;97486.63;4991258;28;20049;-47
2024/02/08 09:20:47;;;;;;;4.15;2.63;;;;;;;5.73;32.84;97507.41;4986480;28;20046;-46
2024/02/08 09:23:15;;;;;;;5.72;2.50;;;;;;;6.07;34.39;97526.38;4966667;28;20148;-48
2024/02/08 09:25:44;;;;;;;8.60;3.50;;;;;;;5.60;33.46;97492.63;4997026;28;20430;-46
2024/02/08 09:28:23;;;;;;;4.40;2.30;;;;;;;4.68;33.82;97465.28;4978269;28;20071;-44
2024/02/08 09:30:53;;;;;;;4.50;2.20;;;;;;;4.44;33.53;97520.44;4999168;28;20049;-48
2024/02/08 09:33:44;;;;;;;5.13;2.38;;;;;;;4.81;33.93;97527.34;4979355;28;20034;-47
2024/02/08 09:36:14;;;;;;;5.78;2.42;;;;;;;5.16;33.74;97492.19;4997705;28;20515;-47
2024/02/08 09:38:44;;;;;;;3.65;2.05;;;;;;;5.62;33.72;97522.56;4980878;28;20053;-45
2024/02/08 09:41:15;;;;;;;4.97;2.50;;;;;;;5.45;32.87;97519.97;4963561;28;20635;-45
2024/02/08 09:43:46;;;;;;;4.43;2.35;;;;;;;5.78;32.98;97526.06;4984809;28;20263;-47
2024/02/08 09:49:18;;;;;;;3.85;2.00;;;;;;;5.48;32.08;97530.97;5002708;28;20049;-51
2024/02/08 09:51:53;;;;;;;2.80;1.85;;;;;;;5.66;33.10;97533.53;4986677;28;20042;-52
2024/02/08 09:54:30;;;;;;;3.45;1.80;;;;;;;5.16;32.76;97538.56;4965431;28;20468;-47
2024/02/08 09:57:22;;;;;;;5.47;2.28;;;;;;;4.44;32.96;97541.00;4973736;28;20115;-46
2024/02/08 10:00:34;;;;;;;4.55;2.40;;;;;;;4.80;33.50;97503.34;4973834;28;20045;-46
2024/02/08 10:03:03;;;;;;;3.65;2.20;;;;;;;6.04;33.51;97547.16;4993942;28;20828;-48
2024/02/08 10:05:50;;;;;;;5.88;2.55;;;;;;;4.76;33.17;97545.56;4979473;28;20391;-46
2024/02/08 10:08:31;;;;;;;9.02;2.10;;;;;;;2.28;35.48;97556.50;4977457;28;20044;-43
2024/02/08 10:11:11;;;;;;;4.13;2.22;;;;;;;1.12;37.36;97573.16;4964265;28;20517;-48
2024/02/08 10:13:53;;;;;;;6.03;2.08;;;;;;;-0.08;38.52;97537.41;4970172;28;20038;-46
2024/02/08 10:16:29;;;;;;;4.53;2.00;;;;;;;-0.88;38.71;97519.88;4987007;28;20045;-45
2024/02/08 10:19:23;;;;;;;3.47;1.52;;;;;;;-1.24;40.08;97566.59;4980803;28;20065;-43
2024/02/08 10:21:44;;;;;;;3.80;2.08;;;;;;;-1.62;40.82;97575.88;4993793;28;20045;-43
2024/02/08 10:24:25;;;;;;;4.00;2.05;;;;;;;-1.69;41.55;97586.22;4995085;28;20129;-40
2024/02/08 10:26:54;;;;;;;3.95;2.13;;;;;;;-1.89;41.72;97578.97;4986689;28;20136;-42
2024/02/08 10:29:24;;;;;;;4.13;2.10;;;;;;;-2.58;41.79;97585.25;4996151;28;20041;-42
2024/02/08 10:31:54;;;;;;;5.88;2.00;;;;;;;-2.86;43.20;97599.25;4995410;28;20541;-43
2024/02/08 10:34:32;;;;;;;6.85;2.60;;;;;;;-2.89;44.06;97591.69;4981500;28;20402;-41
2024/02/08 10:36:59;;;;;;;4.78;1.80;;;;;;;-2.77;45.17;97594.00;4994843;28;20129;-41
2024/02/08 10:39:25;;;;;;;4.00;1.88;;;;;;;-2.73;46.37;97579.56;4965186;28;20134;-42
2024/02/08 10:41:58;;;;;;;6.07;2.10;;;;;;;-2.61;46.51;97600.53;4969899;28;20038;-42
2024/02/08 10:44:32;;;;;;;4.07;2.00;;;;;;;-2.43;47.36;97607.06;4986969;28;20073;-42
2024/02/08 10:47:09;;;;;;;4.40;2.05;;;;;;;-2.36;47.29;97615.44;4988679;28;20043;-42
2024/02/08 10:49:44;;;;;;;5.15;2.25;;;;;;;-2.34;47.57;97606.91;5002426;28;20041;-43
2024/02/08 10:52:12;;;;;;;6.40;2.65;;;;;;;-2.61;47.59;97570.03;4991602;28;20046;-43
2024/02/08 10:54:51;;;;;;;5.40;2.08;;;;;;;-2.40;47.03;97616.31;5004448;28;20052;-42
2024/02/08 10:57:39;;;;;;;4.57;1.90;;;;;;;-1.94;46.19;97622.34;4973835;28;20456;-41
2024/02/08 11:03:08;;;;;;;6.05;2.08;;;;;;;-2.10;44.90;97632.81;4962743;28;20162;-41
2024/02/08 11:05:48;;;;;;;5.18;2.10;;;;;;;-2.23;45.12;97638.09;4993523;28;20510;-42
2024/02/08 11:08:24;;;;;;;4.10;2.03;;;;;;;-1.55;45.33;97643.66;4986583;28;20149;-49
2024/02/08 11:10:54;;;;;;;5.43;1.98;;;;;;;-1.24;45.09;97643.06;4986259;28;20038;-42
2024/02/08 11:13:29;;;;;;;3.35;1.45;;;;;;;-0.99;44.39;97639.97;4983662;28;20074;-43
2024/02/08 11:16:04;;;;;;;2.53;1.38;;;;;;;-1.64;42.87;97614.97;4969449;28;20049;-42
2024/02/08 11:18:35;;;;;;;4.22;1.70;;;;;;;-1.77;42.96;97583.81;4984964;28;20046;-41
2024/02/08 11:21:04;;;;;;;4.85;1.98;;;;;;;-0.84;43.31;97654.13;4987758;28;20252;-43
2024/02/08 11:23:32;;;;;;;3.72;1.58;;;;;;;0.76;42.85;97663.75;5005032;28;20514;-41
2024/02/08 11:26:08;;;;;;;4.65;2.00;;;;;;;1.70;40.62;97658.38;5004481;28;20045;-44
2024/02/08 11:28:54;;;;;;;3.97;1.83;;;;;;;2.61;40.21;97636.53;5006134;28;20048;-44
2024/02/08 11:31:26;;;;;;;6.10;2.30;;;;;;;3.73;39.12;97661.38;5004094;28;20533;-43
2024/02/08 11:33:55;;;;;;;6.10;2.15;;;;;;;3.36;39.03;97651.69;5005611;28;20082;-42
2024/02/08 11:36:34;;;;;;;2.92;1.75;;;;;;;1.61;37.64;97666.34;4985992;28;20049;-43
2024/02/08 11:39:21;;;;;;;4.20;2.22;;;;;;;1.63;39.44;97670.53;4986459;28;20050;-42
2024/02/08 11:41:48;;;;;;;5.22;2.20;;;;;;;1.13;39.43;97620.03;5001565;28;20041;-43
2024/02/08 11:44:21;;;;;;;4.38;2.10;;;;;;;1.63;38.63;97662.00;4983250;28;20042;-42
2024/02/08 11:46:51;;;;;;;5.47;2.10;;;;;;;1.76;39.83;97662.47;4984568;28;20042;-41
2024/02/08 11:49:31;;;;;;;5.35;2.25;;;;;;;2.37;39.78;97662.13;4986080;28;20129;-42
2024/02/08 11:52:07;;;;;;;2.78;1.67;;;;;;;2.59;39.48;97669.09;4992007;28;20050;-42
2024/02/08 11:54:37;;;;;;;5.05;2.78;;;;;;;2.63;39.08;97673.22;4969032;28;20297;-42
2024/02/08 11:57:11;;;;;;;4.88;2.55;;;;;;;2.65;39.81;97664.59;4992807;28;20537;-43
2024/02/08 11:59:39;;;;;;;4.65;1.80;;;;;;;2.46;39.26;97668.69;5004556;28;20520;-42
2024/02/08 12:02:11;;;;;;;5.90;2.15;;;;;;;2.75;39.22;97673.63;5009522;28;20045;-44
2024/02/08 12:04:37;;;;;;;4.40;2.20;;;;;;;2.65;39.15;97636.38;5007351;28;20038;-43
2024/02/08 12:07:07;;;;;;;8.48;1.85;;;;;;;2.63;38.49;97678.34;5009313;28;20113;-41
2024/02/08 12:09:33;;;;;;;;;;;;;;;0.78;38.04;97678.19;5008332;28;20631;-41
2024/02/08 12:12:00;;;;;;;2.20;1.33;;;;;;;-0.09;39.23;97682.13;4982757;28;20390;-41
2024/02/08 12:14:26;;;;;;;5.70;2.10;;;;;;;-0.98;40.44;97689.25;4988790;28;20042;-41
2024/02/08 12:16:57;;;;;;;5.05;2.45;;;;;;;-1.37;41.19;97688.34;4988594;28;20057;-42
2024/02/08 12:19:30;;;;;;;4.18;2.20;;;;;;;-1.69;41.12;97694.03;4996403;28;20046;-43
2024/02/08 12:21:57;;;;;;;7.65;2.33;;;;;;;-1.66;41.58;97709.25;5007740;28;20041;-42
2024/02/08 12:24:31;;;;;;;4.38;1.83;;;;;;;-2.44;41.48;97671.50;5008765;28;20053;-41
2024/02/08 12:27:08;;;;;;;5.47;2.15;;;;;;;-2.61;42.53;97709.06;5007752;28;20465;-41
2024/02/08 12:29:37;;;;;;;5.88;2.40;;;;;;;-2.31;42.43;97712.88;4989164;28;20041;-43
2024/02/08 12:32:05;;;;;;;5.15;1.85;;;;;;;-1.31;42.64;97713.72;4978131;28;20060;-44
2024/02/08 12:34:33;;;;;;;4.22;1.67;;;;;;;-1.46;41.91;97709.72;4970541;28;20049;-42
2024/02/08 12:37:05;;;;;;;4.07;1.80;;;;;;;-1.34;41.75;97722.25;4990693;28;20042;-42
2024/02/08 12:39:38;;;;;;;3.00;1.42;;;;;;;-1.07;41.60;97736.19;4998893;28;20057;-42
2024/02/08 12:42:05;;;;;;;3.97;1.67;;;;;;;-1.77;40.88;97732.34;5003621;28;20528;-41
2024/02/08 12:44:39;;;;;;;4.82;1.63;;;;;;;-2.25;41.55;97721.25;4973288;28;20057;-41
2024/02/08 12:47:06;;;;;;;7.90;1.80;;;;;;;-2.12;42.49;97729.53;4988389;28;20072;-42
2024/02/08 12:49:35;;;;;;;4.80;1.73;;;;;;;-2.19;43.24;97740.66;4998127;28;20070;-42
2024/02/08 12:52:07;;;;;;;6.97;1.70;;;;;;;-2.75;44.06;97744.84;4992489;28;20422;-42
2024/02/08 12:54:33;;;;;;;3.72;1.23;;;;;;;-2.89;44.35;97739.13;4965705;28;20046;-42
2024/02/08 12:57:13;;;;;;;6.03;2.30;;;;;;;-3.63;43.89;97702.69;4980865;28;20066;-42
2024/02/08 12:59:41;;;;;;;7.00;2.10;;;;;;;-3.51;44.51;97737.28;4980271;28;20042;-41
2024/02/08 13:02:17;;;;;;;3.40;1.60;;;;;;;-3.61;44.75;97730.59;4995682;28;20132;-41
2024/02/08 13:04:48;;;;;;;5.45;1.52;;;;;;;-3.97;45.35;97749.50;4998497;28;20671;-41
2024/02/08 13:07:19;;;;;;;6.45;1.98;;;;;;;-3.90;45.63;97754.53;5007116;28;20393;-42
2024/02/08 13:09:46;;;;;;;6.78;1.65;;;;;;;-4.06;45.81;97750.44;4979326;28;20137;-42
2024/02/08 13:12:19;;;;;;;6.40;1.90;;;;;;;-4.28;46.64;97737.06;4995539;28;20070;-41
2024/02/08 13:14:48;;;;;;;4.90;1.67;;;;;;;-4.30;46.81;97758.25;4993274;28;20623;-42
2024/02/08 13:17:19;;;;;;;2.92;1.45;;;;;;;-4.46;47.19;97746.50;5006752;28;20077;-41
2024/02/08 13:19:54;;;;;;;6.25;2.10;;;;;;;-4.50;46.41;97775.28;4978656;28;20038;-41
2024/02/08 13:22:24;;;;;;;4.70;1.60;;;;;;;-4.74;46.57;97748.34;4972317;28;20045;-42
2024/02/08 13:24:53;;;;;;;;;;;;;;;-4.93;46.92;97764.50;4971410;28;20038;-42
2024/02/08 13:27:24;;;;;;;4.38;1.80;;;;;;;-5.12;47.57;97761.16;4990727;28;19944;-41
2024/02/08 13:29:55;;;;;;;3.83;1.40;;;;;;;-5.51;48.28;97730.91;4985867;28;20532;-40
2024/02/08 13:32:25;;;;;;;3.28;1.58;;;;;;;-5.65;48.49;97767.19;4963147;28;20042;-43
2024/02/08 13:34:54;;;;;;;;;;;;;;;-5.74;48.93;97773.97;4964742;28;20038;-43
2024/02/08 13:37:22;;;;;;;1.20;0.90;;;;;;;-6.33;49.35;97724.25;4995491;28;19922;-42
2024/02/08 13:39:50;;;;;;;4.40;1.45;;;;;;;-6.48;49.99;97777.31;4992199;28;20773;-42
2024/02/08 13:42:19;;;;;;;4.95;1.63;;;;;;;-6.61;50.80;97773.94;4980310;28;20453;-43
2024/02/08 13:44:45;;;;;;;3.10;1.58;;;;;;;-6.99;51.32;97746.03;4992599;28;20526;-41
2024/02/08 13:47:12;;;;;;;3.95;1.48;;;;;;;-6.99;51.77;97756.13;4963848;28;20066;-42
2024/02/08 13:49:39;;;;;;;5.85;1.80;;;;;;;-7.08;51.84;97781.34;4977608;28;20046;-42
2024/02/08 13:52:06;;;;;;;4.97;1.48;;;;;;;-7.08;52.30;97798.19;4993813;28;20068;-42
2024/02/08 13:54:37;;;;;;;2.15;1.38;;;;;;;-7.09;52.73;97806.59;4995826;28;20054;-43
2024/02/08 13:57:14;;;;;;;3.63;1.83;;;;;;;-7.26;52.80;97801.44;4997342;28;20042;-42